createdAt,value
2023-03-04T00:00:34.307Z,100.00
2023-03-04T00:03:02.076Z,100.00
2023-03-04T00:05:31.753Z,100.00
2023-03-04T00:07:59.541Z,100.00
2023-03-04T00:10:27.349Z,100.00
2023-03-04T00:12:55.191Z,100.00
2023-03-04T00:15:22.974Z,100.00
2023-03-04T00:17:50.953Z,100.00
2023-03-04T00:20:18.972Z,100.00
2023-03-04T00:22:47.999Z,100.00
2023-03-04T00:25:16.107Z,100.00
2023-03-04T00:27:43.855Z,100.00
2023-03-04T00:30:12.131Z,100.00
2023-03-04T00:32:39.894Z,100.00
2023-03-04T00:35:08.240Z,100.00
2023-03-04T00:37:36.093Z,100.00
2023-03-04T00:40:04.026Z,100.00
2023-03-04T00:42:31.816Z,100.00
2023-03-04T00:44:59.541Z,100.00
2023-03-04T00:47:27.299Z,100.00
2023-03-04T00:49:55.059Z,100.00
2023-03-04T00:52:22.813Z,100.00
2023-03-04T00:54:50.560Z,100.00
2023-03-04T00:57:18.255Z,100.00
2023-03-04T00:59:47.415Z,100.00
2023-03-04T01:02:15.237Z,100.00
2023-03-04T01:04:43.126Z,100.00
2023-03-04T01:07:10.991Z,100.00
2023-03-04T01:09:38.764Z,100.00
2023-03-04T01:12:06.685Z,100.00
2023-03-04T01:14:34.498Z,100.00
2023-03-04T01:17:02.428Z,100.00
2023-03-04T01:19:30.233Z,100.00
2023-03-04T01:21:58.066Z,100.00
2023-03-04T01:24:25.903Z,100.00
2023-03-04T01:26:53.635Z,100.00
2023-03-04T01:29:21.380Z,100.00
2023-03-04T01:31:49.270Z,100.00
2023-03-04T01:34:17.104Z,100.00
2023-03-04T01:36:44.866Z,100.00
2023-03-04T01:39:12.609Z,100.00
2023-03-04T01:41:40.402Z,100.00
2023-03-04T01:44:08.130Z,100.00
2023-03-04T01:46:35.883Z,100.00
2023-03-04T01:49:03.859Z,100.00
2023-03-04T01:51:31.627Z,100.00
2023-03-04T01:53:59.479Z,100.00
2023-03-04T01:56:30.434Z,100.00
2023-03-04T01:59:13.191Z,100.00
2023-03-04T02:01:41.358Z,100.00
2023-03-04T02:04:09.384Z,100.00
2023-03-04T02:06:38.374Z,100.00
2023-03-04T02:09:06.849Z,100.00
2023-03-04T02:11:35.488Z,100.00
2023-03-04T02:14:03.263Z,100.00
2023-03-04T02:16:31.038Z,100.00
2023-03-04T02:18:58.844Z,100.00
2023-03-04T02:21:33.501Z,100.00
2023-03-04T02:24:31.730Z,100.00
2023-03-04T02:27:00.134Z,100.00
2023-03-04T02:29:27.950Z,100.00
2023-03-04T02:31:55.994Z,100.00
2023-03-04T02:34:25.325Z,100.00
2023-03-04T02:36:53.920Z,100.00
2023-03-04T02:39:21.555Z,100.00
2023-03-04T02:41:49.863Z,100.00
2023-03-04T02:44:19.757Z,100.00
2023-03-04T02:46:47.805Z,100.00
2023-03-04T02:49:15.630Z,100.00
2023-03-04T02:51:43.322Z,100.00
2023-03-04T02:54:18.611Z,100.00
2023-03-04T02:56:50.024Z,100.00
2023-03-04T02:59:17.853Z,100.00
2023-03-04T03:01:45.785Z,100.00
2023-03-04T03:04:14.146Z,100.00
2023-03-04T03:06:42.206Z,100.00
2023-03-04T03:09:10.131Z,100.00
2023-03-04T03:11:37.970Z,100.00
2023-03-04T03:14:05.883Z,100.00
2023-03-04T03:16:33.713Z,100.00
2023-03-04T03:19:01.595Z,100.00
2023-03-04T03:21:29.440Z,100.00
2023-03-04T03:23:57.329Z,100.00
2023-03-04T03:26:25.127Z,100.00
2023-03-04T03:28:52.860Z,100.00
2023-03-04T03:31:21.213Z,100.00
2023-03-04T03:33:48.991Z,100.00
2023-03-04T03:36:16.865Z,100.00
2023-03-04T03:38:44.911Z,100.00
2023-03-04T03:41:12.711Z,100.00
2023-03-04T03:43:40.449Z,100.00
2023-03-04T03:46:08.241Z,100.00
2023-03-04T03:48:36.038Z,100.00
2023-03-04T03:51:03.768Z,100.00
2023-03-04T03:53:31.593Z,100.00
2023-03-04T03:56:00.217Z,100.00
2023-03-04T03:58:28.276Z,100.00
2023-03-04T04:00:58.331Z,100.00
2023-03-04T04:03:26.488Z,100.00
2023-03-04T04:05:54.290Z,100.00
2023-03-04T04:08:22.028Z,100.00
2023-03-04T04:10:49.800Z,100.00
2023-03-04T04:13:17.560Z,100.00
2023-03-04T04:15:45.300Z,100.00
2023-03-04T04:18:13.108Z,100.00
2023-03-04T04:20:40.988Z,100.00
2023-03-04T04:23:08.780Z,100.00
2023-03-04T04:25:36.688Z,100.00
2023-03-04T04:28:04.471Z,100.00
2023-03-04T04:30:32.465Z,100.00
2023-03-04T04:33:02.910Z,100.00
2023-03-04T04:35:30.789Z,100.00
2023-03-04T04:37:58.514Z,100.00
2023-03-04T04:40:26.297Z,100.00
2023-03-04T04:42:54.113Z,100.00
2023-03-04T04:45:21.938Z,100.00
2023-03-04T04:47:49.780Z,100.00
2023-03-04T04:50:17.854Z,100.00
2023-03-04T04:52:45.677Z,100.00
2023-03-04T04:55:13.505Z,100.00
2023-03-04T04:57:41.379Z,100.00
2023-03-04T05:00:11.204Z,100.00
2023-03-04T05:02:39.206Z,100.00
2023-03-04T05:05:07.857Z,100.00
2023-03-04T05:07:35.765Z,100.00
2023-03-04T05:10:03.625Z,100.00
2023-03-04T05:12:31.341Z,100.00
2023-03-04T05:14:59.205Z,100.00
2023-03-04T05:17:27.002Z,100.00
2023-03-04T05:19:54.742Z,100.00
2023-03-04T05:22:22.495Z,100.00
2023-03-04T05:24:50.396Z,100.00
2023-03-04T05:27:18.174Z,100.00
2023-03-04T05:29:47.946Z,100.00
2023-03-04T05:32:15.879Z,100.00
2023-03-04T05:34:43.601Z,100.00
2023-03-04T05:37:11.365Z,100.00
2023-03-04T05:39:39.120Z,100.00
2023-03-04T05:42:06.922Z,100.00
2023-03-04T05:44:34.618Z,100.00
2023-03-04T05:47:02.441Z,100.00
2023-03-04T05:49:30.418Z,100.00
2023-03-04T05:51:58.140Z,100.00
2023-03-04T05:54:25.915Z,100.00
2023-03-04T05:56:53.881Z,100.00
2023-03-04T05:59:21.744Z,100.00
2023-03-04T06:01:49.549Z,100.00
2023-03-04T06:04:17.481Z,100.00
2023-03-04T06:06:47.614Z,100.00
2023-03-04T06:09:15.902Z,100.00
2023-03-04T06:11:43.749Z,100.00
2023-03-04T06:14:11.608Z,100.00
2023-03-04T06:16:39.431Z,100.00
2023-03-04T06:19:07.257Z,100.00
2023-03-04T06:21:35.089Z,100.00
2023-03-04T06:24:02.970Z,100.00
2023-03-04T06:26:30.684Z,100.00
2023-03-04T06:28:58.602Z,100.00
2023-03-04T06:31:26.419Z,100.00
2023-03-04T06:33:54.179Z,100.00
2023-03-04T06:36:22.031Z,100.00
2023-03-04T06:38:49.794Z,100.00
2023-03-04T06:41:17.798Z,100.00
2023-03-04T06:43:45.606Z,100.00
2023-03-04T06:46:13.447Z,100.00
2023-03-04T06:48:41.294Z,100.00
2023-03-04T06:51:10.180Z,100.00
2023-03-04T06:53:38.362Z,100.00
2023-03-04T06:56:06.728Z,100.00
2023-03-04T06:58:34.601Z,100.00
2023-03-04T07:01:25.050Z,100.00
2023-03-04T07:03:53.387Z,100.00
2023-03-04T07:06:22.758Z,100.00
2023-03-04T07:08:50.543Z,100.00
2023-03-04T07:11:18.458Z,100.00
2023-03-04T07:13:46.203Z,100.00
2023-03-04T07:16:16.088Z,100.00
2023-03-04T07:18:43.935Z,100.00
2023-03-04T07:21:11.854Z,100.00
2023-03-04T07:23:39.959Z,100.00
2023-03-04T07:26:07.971Z,100.00
2023-03-04T07:28:36.501Z,100.00
2023-03-04T07:31:11.643Z,100.00
2023-03-04T07:33:39.419Z,100.00
2023-03-04T07:36:07.441Z,100.00
2023-03-04T07:38:35.352Z,100.00
2023-03-04T07:41:03.340Z,100.00
2023-03-04T07:43:31.163Z,100.00
2023-03-04T07:46:02.989Z,100.00
2023-03-04T07:48:30.802Z,100.00
2023-03-04T07:51:06.513Z,100.00
2023-03-04T07:53:34.576Z,100.00
2023-03-04T07:56:02.823Z,100.00
2023-03-04T07:58:30.814Z,100.00
2023-03-04T08:00:58.802Z,100.00
2023-03-04T08:03:27.444Z,100.00
2023-03-04T08:05:55.212Z,100.00
2023-03-04T08:08:22.977Z,100.00
2023-03-04T08:10:50.767Z,100.00
2023-03-04T08:13:18.629Z,100.00
2023-03-04T08:15:46.434Z,100.00
2023-03-04T08:18:14.259Z,100.00
2023-03-04T08:20:45.195Z,100.00
2023-03-04T08:23:13.108Z,100.00
2023-03-04T08:25:41.780Z,100.00
2023-03-04T08:28:09.951Z,100.00
2023-03-04T08:30:38.026Z,100.00
2023-03-04T08:33:05.904Z,100.00
2023-03-04T08:35:34.043Z,100.00
2023-03-04T08:38:02.598Z,100.00
2023-03-04T08:40:32.153Z,100.00
2023-03-04T08:43:00.098Z,100.00
2023-03-04T08:45:27.959Z,100.00
2023-03-04T08:47:55.819Z,100.00
2023-03-04T08:50:23.775Z,100.00
2023-03-04T08:52:51.475Z,100.00
2023-03-04T08:55:19.417Z,100.00
2023-03-04T08:57:47.394Z,100.00
2023-03-04T09:00:16.076Z,100.00
2023-03-04T09:02:44.019Z,100.00
2023-03-04T09:05:11.852Z,100.00
2023-03-04T09:07:39.773Z,100.00
2023-03-04T09:10:08.065Z,100.00
2023-03-04T09:12:35.938Z,100.00
2023-03-04T09:15:11.215Z,100.00
2023-03-04T09:17:40.825Z,100.00
2023-03-04T09:20:11.523Z,100.00
2023-03-04T09:22:40.029Z,100.00
2023-03-04T09:25:12.182Z,100.00
2023-03-04T09:27:40.872Z,100.00
2023-03-04T09:30:09.853Z,100.00
2023-03-04T09:32:37.929Z,100.00
2023-03-04T09:35:06.227Z,100.00
2023-03-04T09:37:34.094Z,100.00
2023-03-04T09:40:02.141Z,100.00
2023-03-04T09:42:36.803Z,100.00
2023-03-04T09:45:08.544Z,100.00
2023-03-04T09:47:36.917Z,100.00
2023-03-04T09:50:08.678Z,100.00
2023-03-04T09:53:09.356Z,100.00
2023-03-04T09:55:40.518Z,100.00
2023-03-04T09:58:15.189Z,100.00
2023-03-04T10:00:45.149Z,100.00
2023-03-04T10:03:20.492Z,100.00
2023-03-04T10:06:07.695Z,100.00
2023-03-04T10:09:11.745Z,100.00
2023-03-04T10:11:46.517Z,100.00
2023-03-04T10:14:23.563Z,100.00
2023-03-04T10:17:01.660Z,100.00
2023-03-04T10:19:42.744Z,100.00
2023-03-04T10:22:18.404Z,99.30
2023-03-04T10:24:48.389Z,100.00
2023-03-04T10:27:18.148Z,99.33
2023-03-04T10:29:48.651Z,100.00
2023-03-04T10:32:19.004Z,99.29
2023-03-04T10:34:46.916Z,100.00
2023-03-04T10:37:14.704Z,100.00
2023-03-04T10:39:44.052Z,97.82
2023-03-04T10:42:17.685Z,96.78
2023-03-04T10:44:57.035Z,97.25
2023-03-04T10:47:26.473Z,96.58
2023-03-04T10:49:59.218Z,96.74
2023-03-04T10:52:48.947Z,97.13
2023-03-04T10:55:42.674Z,97.09
2023-03-04T10:58:14.404Z,95.46
2023-03-04T11:00:42.305Z,96.32
2023-03-04T11:03:29.783Z,95.73
2023-03-04T11:06:23.314Z,92.12
2023-03-04T11:08:58.323Z,92.17
2023-03-04T11:11:35.605Z,92.54
2023-03-04T11:14:51.436Z,90.10
2023-03-04T11:17:21.863Z,88.21
2023-03-04T11:20:11.849Z,89.88
2023-03-04T11:22:39.619Z,91.07
2023-03-04T11:25:09.278Z,86.22
2023-03-04T11:27:43.935Z,88.29
2023-03-04T11:30:39.834Z,85.26
2023-03-04T11:33:15.888Z,82.04
2023-03-04T11:36:00.847Z,83.21
2023-03-04T11:38:34.756Z,80.10
2023-03-04T11:41:06.218Z,81.39
2023-03-04T11:43:37.193Z,80.52
2023-03-04T11:46:27.295Z,80.98
2023-03-04T11:49:03.184Z,79.83
2023-03-04T11:51:36.417Z,80.90
2023-03-04T11:54:29.029Z,81.22
2023-03-04T11:57:35.292Z,80.25
2023-03-04T12:00:18.428Z,80.85
2023-03-04T12:03:24.299Z,79.62
2023-03-04T12:06:00.996Z,77.69
2023-03-04T12:08:39.566Z,78.44
2023-03-04T12:11:08.174Z,79.72
2023-03-04T12:13:48.348Z,80.62
2023-03-04T12:16:35.084Z,79.04
2023-03-04T12:19:21.856Z,79.36
2023-03-04T12:22:11.851Z,79.47
2023-03-04T12:25:27.793Z,79.27
2023-03-04T12:28:35.721Z,79.88
2023-03-04T12:31:24.571Z,78.35
2023-03-04T12:34:14.895Z,79.11
2023-03-04T12:36:55.050Z,79.52
2023-03-04T12:39:36.671Z,80.19
2023-03-04T12:42:19.554Z,77.79
2023-03-04T12:44:49.662Z,78.07
2023-03-04T12:47:24.060Z,76.27
2023-03-04T12:50:19.128Z,77.85
2023-03-04T12:52:59.891Z,76.90
2023-03-04T12:55:36.594Z,76.99
2023-03-04T12:58:04.491Z,76.63
2023-03-04T13:01:10.039Z,76.14
2023-03-04T13:03:45.880Z,75.99
2023-03-04T13:06:33.394Z,72.67
2023-03-04T13:09:10.018Z,72.51
2023-03-04T13:11:49.904Z,74.69
2023-03-04T13:14:19.322Z,71.18
2023-03-04T13:16:49.437Z,72.20
2023-03-04T13:19:46.264Z,72.02
2023-03-04T13:22:42.310Z,71.43
2023-03-04T13:25:35.020Z,71.01
2023-03-04T13:28:14.672Z,72.38
2023-03-04T13:30:43.246Z,71.76
2023-03-04T13:33:14.676Z,71.78
2023-03-04T13:35:48.508Z,73.10
2023-03-04T13:38:28.496Z,71.07
2023-03-04T13:41:21.245Z,70.14
2023-03-04T13:43:59.619Z,70.20
2023-03-04T13:46:28.650Z,70.34
2023-03-04T13:48:56.526Z,70.22
2023-03-04T13:51:34.050Z,68.92
2023-03-04T13:54:02.048Z,68.57
2023-03-04T13:56:42.930Z,70.13
2023-03-04T13:59:10.635Z,69.14
2023-03-04T14:01:44.170Z,69.09
2023-03-04T14:04:17.571Z,69.08
2023-03-04T14:06:46.551Z,70.35
2023-03-04T14:09:16.211Z,70.52
2023-03-04T14:11:44.088Z,70.91
2023-03-04T14:14:17.544Z,71.40
2023-03-04T14:16:56.850Z,71.86
2023-03-04T14:19:29.923Z,73.26
2023-03-04T14:21:58.076Z,72.67
2023-03-04T14:24:26.026Z,72.98
2023-03-04T14:27:12.877Z,73.16
2023-03-04T14:29:40.730Z,73.93
2023-03-04T14:32:09.008Z,73.35
2023-03-04T14:34:38.515Z,73.45
2023-03-04T14:37:21.431Z,74.29
2023-03-04T14:39:50.580Z,75.03
2023-03-04T14:42:18.558Z,76.94
2023-03-04T14:44:49.101Z,75.75
2023-03-04T14:47:25.397Z,76.18
2023-03-04T14:49:53.255Z,75.96
2023-03-04T14:52:36.579Z,76.89
2023-03-04T14:55:28.050Z,77.16
2023-03-04T14:58:06.933Z,79.17
2023-03-04T15:00:36.363Z,79.38
2023-03-04T15:03:23.949Z,78.93
2023-03-04T15:05:54.001Z,79.39
2023-03-04T15:08:31.997Z,79.95
2023-03-04T15:11:01.283Z,80.68
2023-03-04T15:13:46.349Z,80.52
2023-03-04T15:16:15.527Z,81.15
2023-03-04T15:19:25.821Z,80.75
2023-03-04T15:21:53.674Z,81.81
2023-03-04T15:24:21.724Z,81.66
2023-03-04T15:26:51.774Z,82.23
2023-03-04T15:29:20.676Z,82.91
2023-03-04T15:31:51.885Z,82.72
2023-03-04T15:34:21.213Z,83.08
2023-03-04T15:36:50.673Z,83.34
2023-03-04T15:39:19.056Z,83.37
2023-03-04T15:41:49.609Z,84.21
2023-03-04T15:44:17.492Z,84.71
2023-03-04T15:46:45.302Z,85.36
2023-03-04T15:49:13.194Z,84.68
2023-03-04T15:51:41.031Z,85.55
2023-03-04T15:54:10.775Z,86.44
2023-03-04T15:56:38.800Z,87.13
2023-03-04T15:59:15.932Z,88.29
2023-03-04T16:01:44.187Z,89.27
2023-03-04T16:04:17.924Z,89.35
2023-03-04T16:06:46.578Z,90.74
2023-03-04T16:09:15.740Z,91.18
2023-03-04T16:11:46.712Z,92.40
2023-03-04T16:14:15.755Z,92.16
2023-03-04T16:16:45.234Z,93.32
2023-03-04T16:19:13.046Z,93.82
2023-03-04T16:21:40.780Z,93.24
2023-03-04T16:24:16.827Z,94.25
2023-03-04T16:26:44.682Z,94.48
2023-03-04T16:29:12.741Z,94.68
2023-03-04T16:31:40.700Z,94.65
2023-03-04T16:34:08.667Z,94.06
2023-03-04T16:36:36.580Z,93.95
2023-03-04T16:39:05.917Z,94.88
2023-03-04T16:41:33.688Z,95.96
2023-03-04T16:44:02.133Z,96.15
2023-03-04T16:46:31.109Z,97.33
2023-03-04T16:48:58.939Z,97.07
2023-03-04T16:51:26.695Z,98.12
2023-03-04T16:53:58.512Z,98.29
2023-03-04T16:56:26.329Z,98.26
2023-03-04T16:58:55.452Z,98.89
2023-03-04T17:01:25.113Z,98.88
2023-03-04T17:03:53.351Z,98.60
2023-03-04T17:06:22.090Z,98.63
2023-03-04T17:08:49.973Z,97.25
2023-03-04T17:11:19.450Z,96.98
2023-03-04T17:13:47.273Z,96.91
2023-03-04T17:16:16.421Z,96.66
2023-03-04T17:18:45.412Z,96.08
2023-03-04T17:21:18.030Z,95.13
2023-03-04T17:23:45.881Z,95.62
2023-03-04T17:26:14.409Z,94.69
2023-03-04T17:28:42.501Z,93.73
2023-03-04T17:31:13.551Z,92.82
2023-03-04T17:33:41.343Z,91.29
2023-03-04T17:36:11.826Z,91.04
2023-03-04T17:38:39.877Z,91.05
2023-03-04T17:41:09.340Z,90.64
2023-03-04T17:43:37.166Z,91.22
2023-03-04T17:46:09.728Z,91.46
2023-03-04T17:48:37.608Z,91.82
2023-03-04T17:51:06.861Z,93.05
2023-03-04T17:53:34.785Z,90.51
2023-03-04T17:56:03.825Z,91.22
2023-03-04T17:58:33.226Z,91.01
2023-03-04T18:01:12.600Z,89.25
2023-03-04T18:03:45.207Z,89.28
2023-03-04T18:06:13.202Z,89.98
2023-03-04T18:08:41.105Z,90.48
2023-03-04T18:11:08.916Z,90.05
2023-03-04T18:13:41.999Z,90.43
2023-03-04T18:16:15.275Z,90.99
2023-03-04T18:18:43.912Z,90.80
2023-03-04T18:21:11.825Z,91.98
2023-03-04T18:23:39.594Z,91.25
2023-03-04T18:26:07.577Z,89.96
2023-03-04T18:28:35.363Z,87.54
2023-03-04T18:31:03.258Z,85.41
2023-03-04T18:33:31.490Z,86.10
2023-03-04T18:36:03.651Z,84.85
2023-03-04T18:38:32.463Z,83.42
2023-03-04T18:41:01.379Z,82.27
2023-03-04T18:43:29.176Z,82.70
2023-03-04T18:46:18.225Z,82.68
2023-03-04T18:48:50.845Z,80.03
2023-03-04T18:51:18.632Z,81.12
2023-03-04T18:53:46.659Z,81.41
2023-03-04T18:56:16.971Z,80.14
2023-03-04T18:58:45.486Z,78.83
2023-03-04T19:01:13.387Z,79.08
2023-03-04T19:03:41.228Z,78.89
2023-03-04T19:06:09.263Z,77.44
2023-03-04T19:08:37.055Z,78.09
2023-03-04T19:11:07.010Z,77.79
2023-03-04T19:13:34.920Z,75.99
2023-03-04T19:16:02.722Z,75.10
2023-03-04T19:18:30.644Z,75.97
2023-03-04T19:21:01.712Z,75.56
2023-03-04T19:23:30.810Z,76.08
2023-03-04T19:25:58.672Z,76.44
2023-03-04T19:28:26.379Z,75.99
2023-03-04T19:30:55.032Z,77.07
2023-03-04T19:33:22.837Z,76.90
2023-03-04T19:35:50.806Z,77.67
2023-03-04T19:38:18.623Z,77.21
2023-03-04T19:40:47.959Z,78.06
2023-03-04T19:43:15.887Z,78.30
2023-03-04T19:45:43.889Z,77.93
2023-03-04T19:48:11.889Z,78.27
2023-03-04T19:50:39.865Z,78.55
2023-03-04T19:53:07.917Z,78.58
2023-03-04T19:55:38.786Z,78.73
2023-03-04T19:58:06.662Z,77.99
2023-03-04T20:00:34.576Z,77.55
2023-03-04T20:03:03.120Z,77.69
2023-03-04T20:05:31.113Z,78.02
2023-03-04T20:07:58.946Z,76.60
2023-03-04T20:10:26.753Z,78.15
2023-03-04T20:12:55.705Z,78.15
2023-03-04T20:15:23.566Z,77.87
2023-03-04T20:17:51.446Z,78.47
2023-03-04T20:20:19.435Z,78.67
2023-03-04T20:22:47.316Z,78.65
2023-03-04T20:25:15.124Z,78.85
2023-03-04T20:27:43.658Z,79.55
2023-03-04T20:30:12.284Z,79.73
2023-03-04T20:32:40.274Z,79.45
2023-03-04T20:35:08.758Z,79.61
2023-03-04T20:37:37.200Z,80.52
2023-03-04T20:40:05.239Z,79.78
2023-03-04T20:42:33.369Z,79.54
2023-03-04T20:45:01.240Z,79.40
2023-03-04T20:47:28.967Z,80.38
2023-03-04T20:49:56.739Z,79.27
2023-03-04T20:52:24.614Z,79.31
2023-03-04T20:54:52.397Z,79.53
2023-03-04T20:57:20.243Z,79.93
2023-03-04T20:59:48.025Z,80.87
2023-03-04T21:02:17.190Z,80.74
2023-03-04T21:04:45.128Z,80.65
2023-03-04T21:07:13.006Z,80.37
2023-03-04T21:09:40.911Z,80.50
2023-03-04T21:12:09.127Z,81.14
2023-03-04T21:14:37.048Z,80.95
2023-03-04T21:17:05.530Z,80.83
2023-03-04T21:19:35.157Z,80.61
2023-03-04T21:22:03.215Z,80.88
2023-03-04T21:24:32.454Z,81.04
2023-03-04T21:27:00.308Z,81.23
2023-03-04T21:29:29.260Z,81.65
2023-03-04T21:32:16.755Z,81.23
2023-03-04T21:34:50.540Z,81.21
2023-03-04T21:37:18.897Z,80.95
2023-03-04T21:39:46.874Z,81.33
2023-03-04T21:42:14.833Z,80.88
2023-03-04T21:44:49.679Z,81.88
2023-03-04T21:47:18.384Z,81.91
2023-03-04T21:49:46.325Z,81.47
2023-03-04T21:52:14.360Z,81.53
2023-03-04T21:54:42.154Z,81.24
2023-03-04T21:57:10.064Z,81.53
2023-03-04T21:59:38.757Z,81.90
2023-03-04T22:02:06.780Z,82.04
2023-03-04T22:04:34.802Z,81.56
2023-03-04T22:07:03.010Z,81.91
2023-03-04T22:09:30.852Z,82.55
2023-03-04T22:11:58.624Z,81.85
2023-03-04T22:14:28.813Z,82.79
2023-03-04T22:16:57.632Z,82.38
2023-03-04T22:19:26.230Z,81.93
2023-03-04T22:21:54.213Z,82.48
2023-03-04T22:24:22.098Z,82.92
2023-03-04T22:26:49.978Z,82.24
2023-03-04T22:29:17.832Z,82.36
2023-03-04T22:31:46.156Z,83.03
2023-03-04T22:34:15.026Z,82.56
2023-03-04T22:36:44.476Z,83.37
2023-03-04T22:39:14.402Z,83.72
2023-03-04T22:41:42.422Z,83.19
2023-03-04T22:44:10.236Z,82.83
2023-03-04T22:46:39.467Z,81.63
2023-03-04T22:49:10.776Z,81.52
2023-03-04T22:51:39.193Z,82.31
2023-03-04T22:54:07.011Z,82.21
2023-03-04T22:56:34.953Z,82.31
2023-03-04T22:59:02.767Z,82.42
2023-03-04T23:01:30.722Z,82.87
2023-03-04T23:03:58.543Z,82.39
2023-03-04T23:06:28.778Z,82.23
2023-03-04T23:08:56.909Z,82.61
2023-03-04T23:11:27.595Z,82.16
2023-03-04T23:13:55.555Z,82.34
2023-03-04T23:16:24.035Z,82.03
2023-03-04T23:18:52.286Z,82.32
2023-03-04T23:21:21.943Z,82.28
2023-03-04T23:23:49.865Z,80.84
2023-03-04T23:26:19.785Z,82.03
2023-03-04T23:28:47.652Z,81.46
2023-03-04T23:31:18.443Z,81.70
2023-03-04T23:33:47.728Z,81.50
2023-03-04T23:36:18.048Z,81.79
2023-03-04T23:38:46.724Z,82.13
2023-03-04T23:41:18.624Z,80.51
2023-03-04T23:43:46.773Z,81.61
2023-03-04T23:46:15.016Z,79.79
2023-03-04T23:48:44.372Z,80.69
2023-03-04T23:51:12.403Z,80.33
2023-03-04T23:53:40.251Z,80.66
2023-03-04T23:56:11.968Z,82.88
2023-03-04T23:58:39.794Z,82.39
